arxmliv
arxmliv build tool
 
KWARC group
LaTeXML
About
   
 

Detailed info

Back to Homepage

List of missing_macros

No. Date Filename num_warningnum_errornum_xmargok_xmargnum_xmathok_xmathMissing macros
72001 2013-03-16 11:26:31 /9111/hep-th.9111002 22910000[\n@space].
72002 2013-03-16 11:25:29 /9110/hep-th.9110063 4410000[\skew].
72003 2013-03-16 11:25:06 /9110/hep-th.9110065 4170000[\affil, \cite, \endtitlepage, \references, \subhead, \endreferences, \singlespace, \refis, \doublespace, \raggedcenter, \beginlinemode, \(, \abstract, \endit, \preprintno, \author]; 1 missing file[jnl-0.3.tex].
72004 2013-03-16 11:24:54 /9110/hep-th.9110051 38120000[\address, {acknowledge}, \runauthor, \runtitle]; 1 missing file[npbproc.cls].
72005 2013-03-16 11:24:35 /9110/hep-th.9110057 3720000[\psfig]; 1 missing file[psfig].
72006 2013-03-16 11:24:03 /9110/hep-th.9110048 710000[{CD}].
72007 2013-03-16 11:23:48 /9110/hep-th.9110012 38140000[\evensidemargin, \headsep, \setlength, \textheight, \oddsidemargin, \textwidth].
72008 2013-03-16 11:23:33 /9110/hep-th.9110021 1620000[\clone, \eqname].
72009 2013-03-16 11:23:22 /9110/hep-th.9110033 2210000[\n@space].
72010 2013-03-16 11:23:16 /9110/hep-th.9110037 4310000[\oddsidemargin].
72011 2013-03-16 11:23:03 /9110/hep-th.9110001 8930000[\@@underline].
72012 2013-03-16 11:22:07 /9110/hep-th.9110019 7460000[\address, \lastpage, \runauthor, \firstpage, \runtitle, \volume]; 1 missing file[npbproc.cls].
72013 2013-03-16 11:22:06 /9110/hep-th.9110011 5150000[\affil, \endpage, \cite, \endtitlepage, \references, \endreferences, \psfig, \refis, \title, \endit, \author, \ignoreuncited]; 3 missing files[psfig, reforder, jnl].
72014 2013-03-16 11:22:04 /9110/hep-th.9110015 5910000[\n@space].
72015 2013-03-16 11:21:30 /9110/hep-th.9110010 31440000[\n@space].
72016 2013-03-16 11:21:03 /9109/hep-th.9109029 4910000[\@@underline].
72017 2013-03-16 11:21:01 /9109/hep-th.9109053 2550000[\fo@t, \listcount, \list, \alloc@]; 1 missing file[referenc.texauxil].
72018 2013-03-16 11:20:34 /9109/hep-th.9109043 97650000[\lastrefsbegincount, \headskip, \firstreflinetrue, \obeyendofline, \refch@ck, \refitem, \paperfootline, \frontpageskip, \iffrontpage, \space@ver, \chap, \rw@start, \paperheadline].
72019 2013-03-16 11:20:15 /9109/hep-th.9109048 4730000[Align, \+, \columns].
72020 2013-03-16 11:20:12 /9109/hep-th.9109044 3430000[\Benneti, \singlespace, \CV, \Dixon, \Turok, \address, \PHYSREV, \abstract, \Kaplun, \flst, \CQRprep, \Dine, \Font, \Ferrara, \Derend, \refmark, \Cvetic, \nopubblock, \title, \Paninal, \Bennetii, \bigpaper, \modularform, \Kim, \Skyr, \foot, \CLO, \ours,
72021 2013-03-16 11:20:01 /9109/hep-th.9109030 8250000[\half, \affil, \references, \subhead, \endreferences, \refis, \doublespace, \beginlinemode, \cmp, \abstract, \prd, \endit, \np, \preprintno, \author, \endtitlepage, \cite, \body, \prl, \ucsb, \raggedcenter, \pl, \jmp, \refto]; 1 missing file[jnl-0.3.tex]
72022 2013-03-16 11:19:51 /9109/hep-th.9109014 3170000[\int, \listcount, \list, \alloc@, \n@space, \wlog]; 1 missing file[referenc.texauxil].
72023 2013-03-16 11:19:47 /9109/hep-th.9109035 570000[\fo@t, \listcount, \list, \alloc@]; 1 missing file[referenc.texauxil].
72024 2013-03-16 11:19:39 /9109/hep-th.9109024 1010000[\lettersize].
72025 2013-03-16 11:19:36 /9109/hep-th.9109025 1810000[\lettersize].
72026 2013-03-16 11:19:06 /9109/hep-th.9109027 540000[{centering}].
72027 2013-03-16 11:19:05 /9109/hep-th.9109028 410000[\NPrefs].
72028 2013-03-16 11:18:28 /9109/hep-th.9109002 4220000[\affil, \references, \subhead, \endreferences, \refis, \doublespace, \beginlinemode, \cmp, \abstract, \prd, \endit, \np, \preprintno, \author, \endtitlepage, \body, \prl, \ucsb, \raggedcenter, \pl, \refto]; 1 missing file[jnl-0.3.tex].
72029 2013-03-16 11:18:16 /9107/hep-lat.9107002 198100000[\fight, \tenpoint, \vfootnote, \subheading, \figins, \heading, \cbox]; 3 missing files[midinsert, 9pt.font, preprint91.format].
72030 2013-03-16 11:18:10 /9108/hep-th.9108020 32130000[\square, \affil, \cite, \endtitlepage, \references, \head, \endreferences, \refis, \endit, \call, \ignoreuncited]; 2 missing files[reforder, jnl].
72031 2013-03-16 11:18:09 /9108/hep-th.9108025 3010000[{instit}].
72032 2013-03-16 11:17:31 /0910/0910.5957 780000[\ArrowLine, \Line, \Text, \DashCArc, \ArrowArcn, \BBoxc, \DashLine, \cancel].
72033 2013-03-16 11:17:20 /0910/0910.5831 2660100000[{sidewaystable}].
72034 2013-03-16 11:17:15 /0910/0910.5951 245120000[Align, \xymatrix, \ar]; 9 missing files[xycurve.sty, xymatrix.sty, xyline.sty, xyarrow.sty, xycmtip.sty, xycolor.sty, xyrotate.sty, xyframe.sty, xygraph.sty].
72035 2013-03-16 11:17:03 /9108/hep-th.9108002 17410000[\@magscale].
72036 2013-03-16 11:16:52 /0910/0910.5937 1530000[\slashed]; 2 missing files[prelim2e.sty, esint.sty].
72037 2013-03-16 11:16:50 /0910/0910.5952 1920000[\pdfpageheight, \pdfpagewidth].
72038 2013-03-16 11:16:42 /9108/hep-th.9108006 18640000[\headskip, \idtwo, \iftwelv@, \Regge, \cgcoefficient, \iso, \movetwo, \bftheory, \Kazakov, \condone, \witten, \Alvarez, \iffrontpage, \qscale, \network, \doubling, \twelvepoint, \fourteenpoint, \twelvecp, \paperfootline, \DDK, \refmark, \GM, \condtwo, \a
72039 2013-03-16 11:16:13 /0910/0910.5931 9020000[\psfrag].
72040 2013-03-16 11:16:09 /0910/0910.5921 8310000[\normalem].
72041 2013-03-16 11:16:01 /0910/0910.5955 330000[\ShortTitle, \FullConference, \speaker]; 1 missing file[PoS.cls].
72042 2013-03-16 11:15:58 /0910/0910.5953 040000[\theappendix, \ocis, \address, \email].
72043 2013-03-16 11:15:15 /0910/0910.5930 010000[\longtabL].
72044 2013-03-16 11:14:58 /0910/0910.5919 1820000[\geometry]; 1 missing file[xy.sty].
72045 2013-03-16 11:14:47 /0910/0910.5933 020000[\citeauthoryear]; 1 missing file[chicnarm.sty].
72046 2013-03-16 11:14:42 /0910/0910.5878 17760000[\textswab, \mathclap, \rrbracket, \llbracket]; 2 missing files[mathtools.sty, esint.sty].
72047 2013-03-16 11:14:29 /0910/0910.5913 1540000[\midrule, \toprule, \bottomrule]; 1 missing file[aalongtable.sty].
72048 2013-03-16 11:14:19 /0910/0910.5917 1690000[\editors, \affiliation, \keywords, \volume, \firstsection, \pagerange, \jname, \pubyear, \etal]; 1 missing file[iaus.cls].
72049 2013-03-16 11:14:03 /0910/0910.5906 0120000[\noextrasenglish, \extrasamerican, \dateenglish, \extrasenglish, \captionsamerican, \subfloat, \subref, \dateamerican, \noextrasamerican, \captionsenglish].
72050 2013-03-16 11:13:41 /0910/0910.5910 140000[\ShortTitle, \email, \FullConference, \speaker]; 1 missing file[PoS.cls].
72051 2013-03-16 11:13:35 /0910/0910.5899 050000[\extrasenglish, \prettyref, \dateenglish, \captionsenglish]; 1 missing file[esint.sty].
72052 2013-03-16 11:13:15 /0910/0910.5879 8650000[\rrbracket, \fint, \llbracket]; 2 missing files[mathtools.sty, esint.sty].
72053 2013-03-16 11:13:12 /0910/0910.5890 11360000[\mathclap, \rrbracket, \fint, \llbracket]; 2 missing files[mathtools.sty, esint.sty].
72054 2013-03-16 11:12:56 /0910/0910.5886 2140000[\citeauthoryear, \opencite, \citeyear, \surname, \institute, \runningtitle, {opening}, {article}, {acks}, \keywords, \sep, \runningauthor, \inlinecite]; 2 missing files[spr-sola-addons.sty, SolarPhysics.cls].
72055 2013-03-16 11:12:27 /0910/0910.5889 4260000[\eqref, \psfig, \bodymatter, \text, \keywords]; 1 missing file[ws.sty].
72056 2013-03-16 11:12:19 /0910/0910.5869 030000[\extrasenglish, \dateenglish, \captionsenglish].
72057 2013-03-16 11:12:16 /0910/0910.5839 81120000[{prop}, {theo}, {lemm}, \urladdr, \email, {altabstract}, {coro}, \mainmatter, \backmatter, {defi}]; 2 missing files[version.sty, xy.sty].
72058 2013-03-16 11:12:03 /0910/0910.5863 820000[\cortext, \newdefinition].
72059 2013-03-16 11:11:50 /0910/0910.5867 920000[\midrule, \bottomrule].
72060 2013-03-16 11:11:20 /0910/0910.5773 44100000[\sbn, \boldd, Align, \itCombinatory, \germS, \xymatrix, \itAn, \boldc, \ar]; 1 missing file[xy.sty].
72061 2013-03-16 11:10:56 /0910/0910.5844 2010000[\theappendix].
72062 2013-03-16 11:10:55 /0910/0910.5842 3440000[\IAref, \Anotfoot, \Iref, {Authlist}, \Aref, \collaboration, \Instfoot, \AAref, \docnum, \submitted, \diff, \IIref]; 1 missing file[cernart.cls].
72063 2013-03-16 11:10:53 /0910/0910.5838 030000[\extrasenglish, \dateenglish, \captionsenglish].
72064 2013-03-16 11:10:52 /0910/0910.5837 7150000[\Issue, \inst, \Month, \Reviseddate, \Receiveddate, \DOIsuffix, \Volume, \keywords, \pagespan, \subjclass, \Copyrightissue, \Dateposted, \Accepteddate, \Year, {acknowledgement}].
72065 2013-03-16 11:10:43 /0910/0910.5840 010000[\ead].
72066 2013-03-16 11:10:29 /0910/0910.5826 170000[{acknowledgments}, \ShortTitle, \href, \email, \FullConference, \pos, \speaker]; 1 missing file[PoS.cls].
72067 2013-03-16 11:10:28 /0910/0910.5836 2510000[\E].
72068 2013-03-16 11:10:23 /0910/0910.5813 0120000[\endfoot, Align, \endhead, \endfirsthead, {longtable}]; 1 missing file[aalongtable.sty].
72069 2013-03-16 11:10:12 /0910/0910.5818 710000[\@end@institute].
72070 2013-03-16 11:09:48 /0910/0910.5821 220000[\al@[, \al@Ho2001,Perez-Torres2007].
72071 2013-03-16 11:09:34 /0910/0910.5782 620000[\mathds]; 1 missing file[mathbbold.sty].
72072 2013-03-16 11:09:33 /0910/0910.5796 490000[\editors, \affiliation, \keywords, \volume, \firstsection, \pagerange, \jname, \pubyear, {acknowledgements}]; 1 missing file[iaus.cls].
72073 2013-03-16 11:09:15 /0910/0910.5730 93140000[\kwd, \snm, \affiliation, {keyword}, \thankstext, \fnms, \runtitle, \thanksref, \address, \runauthor, \printead, {frontmatter}, \ead]; 1 missing file[imsart.cls].
72074 2013-03-16 11:09:07 /0910/0910.5781 120000[\pdfpageheight, \pdfpagewidth].
72075 2013-03-16 11:09:02 /0910/0910.5792 1120000[\varoast]; 1 missing file[xy.sty].
72076 2013-03-16 11:08:56 /0910/0910.5785 970000[{acknowledgments}, \includegraphics, \ShortTitle, \email, \FullConference, \pos, \speaker]; 1 missing file[PoS.cls].
72077 2013-03-16 11:08:54 /0910/0910.5770 010000[\setfloatlink].
72078 2013-03-16 11:08:34 /0910/0910.5761 26200000[\mathds]; 1 missing file[nips07submit_e.sty].
72079 2013-03-16 11:08:11 /0910/0910.5760 030000[\extrasenglish, \dateenglish, \captionsenglish].
72080 2013-03-16 11:08:04 /0910/0910.5750 680000[\label, \title, \textit, \date, \and, \thanks, \author].
72081 2013-03-16 11:07:56 /0910/0910.5755 0420000[\datebritish, \captionsbritish, \noextrasenglish, \dateenglish, \noextrasbritish, \extrasenglish, {comment}, \extrasbritish, \captionsenglish].
72082 2013-03-16 11:07:54 /0910/0910.5742 2010000[\theappendix].
72083 2013-03-16 11:07:51 /0910/0910.5712 3140000[Align, \xymatrix, \ar]; 1 missing file[xy.sty].
72084 2013-03-16 11:07:29 /0910/0910.5699 77130000[Align, @ , \xymatrix, \ar]; 9 missing files[xycurve.sty, xymatrix.sty, xyline.sty, xyarrow.sty, xycmtip.sty, xycolor.sty, xyrotate.sty, xyframe.sty, xygraph.sty].
72085 2013-03-16 11:07:29 /0910/0910.5741 1310000[{comment}].
72086 2013-03-16 11:07:28 /0910/0910.5744 720000[\cortext].
72087 2013-03-16 11:07:25 /0910/0910.5727 720000[\lesssim]; 1 missing file[aas_symbols.sty].
72088 2013-03-16 11:07:15 /0910/0910.5738 2010000[\institute]; 1 missing file[procmult.cls].
72089 2013-03-16 11:07:09 /0910/0910.5737 010000[\onlfig].
72090 2013-03-16 11:06:26 /0910/0910.5735 0320000[\includegraphics, Align, \citep, \scalebox].
72091 2013-03-16 11:06:22 /0910/0910.5723 710000[\theappendix].
72092 2013-03-16 11:05:34 /0910/0910.5707 120000[\layoutstyle, \classification].
72093 2013-03-16 11:05:33 /0910/0910.5679 9010000[\geometry].
72094 2013-03-16 11:05:26 /0910/0910.5714 310000[\theappendix].
72095 2013-03-16 11:05:19 /0910/0910.5702 44120000[Align, \xymatrix, \ar]; 9 missing files[xycurve.sty, xymatrix.sty, xyline.sty, xyarrow.sty, xycmtip.sty, xycolor.sty, xyrotate.sty, xyframe.sty, xygraph.sty].
72096 2013-03-16 11:05:14 /0910/0910.5710 040000[\extrasenglish, \dateenglish, \captionsenglish].
72097 2013-03-16 11:04:50 /0910/0910.5691 830000[{comment}].
72098 2013-03-16 11:04:41 /0910/0910.5716 050000[\includegraphics, \ocis, \address]; 1 missing file[ol2.sty].
72099 2013-03-16 11:04:34 /0910/0910.5698 040000[\theappendix, \ocis, \address, \email].
72100 2013-03-16 11:04:19 /0910/0910.5645 8330000[\rrbracket, \llbracket]; 1 missing file[supp-pdf.tex].
72101 2013-03-16 11:04:15 /0910/0910.5706 240000[\contribID, \doi, \desyproc, \acronym]; 1 missing file[desyproc.cls].
72102 2013-03-16 11:04:11 /0910/0910.5683 3310000[\geometry].
72103 2013-03-16 11:04:10 /0910/0910.5686 640000[\ShortTitle, \email, \FullConference, \speaker]; 1 missing file[PoS.cls].
72104 2013-03-16 11:04:04 /0910/0910.5689 1450000[\includegraphics, \ShortTitle, \email, \FullConference, \speaker]; 1 missing file[PoS.cls].
72105 2013-03-16 11:03:56 /0910/0910.5673 3540000[\overrideIEEEmargins, \QED, \IEEEoverridecommandlockouts]; 2 missing files[ltxtable.sty, ./LatexVariables/ieeeconf.cls].
72106 2013-03-16 11:03:47 /0910/0910.5692 4130000[\includegraphics, \eqref, \gtrsim, \contribID, \doi, \desyproc, \text, \acronym]; 1 missing file[desyproc.cls].
72107 2013-03-16 11:03:31 /0910/0910.5637 4140000[Align, \xymatrix, \ar]; 1 missing file[xy.sty].
72108 2013-03-16 11:03:28 /0910/0910.5680 640000[\lesssim, \bodymatter, \keywords]; 1 missing file[ws.sty].
72109 2013-03-16 11:03:18 /0910/0910.5682 170000[\AddToShipoutPicture, \balance]; 3 missing files[balance.sty, acl2005.sty, eso-pic.sty].
72110 2013-03-16 11:03:02 /0910/0910.5639 50230000[\Ab, \rTo, \dTo, \rMapsto, \diagramstyle, \overcat, \ar, \newarrow, \Tr, \lTo, \xymatrix, \dIgual, \Fp, Align, \Sh, \curs, {diagram}]; 2 missing files[plfgCohNotation.sty, xy.sty].
72111 2013-03-16 11:02:40 /0910/0910.5661 820000[\backslashbox]; 1 missing file[slashbox.sty].
72112 2013-03-16 11:02:28 /0910/0910.5650 11150000[Align, {xy}, \xymatrix, \ar]; 1 missing file[xy.sty].
72113 2013-03-16 11:02:28 /0910/0910.5660 2920000[\ket, \geometry].
72114 2013-03-16 11:02:26 /0910/0910.5657 040000[\extrasenglish, \dateenglish, \captionsenglish]; 1 missing file[esint.sty].
72115 2013-03-16 11:01:47 /0910/0910.5636 58880000[{align*}, \mathbb, \cprime, \spp, \keywords, \numberwithin, Align, \email, \subjclass, \substack].
72116 2013-03-16 11:01:21 /0910/0910.5653 1150000[\includegraphics, \ShortTitle, \email, \FullConference, \speaker]; 1 missing file[PoS.cls].
72117 2013-03-16 11:01:18 /0910/0910.5596 4210000[\dateUSenglish].
72118 2013-03-16 11:01:12 /0910/0910.5632 2040000[Align, \xymatrix, \ar]; 1 missing file[xy.sty].
72119 2013-03-16 11:00:54 /0910/0910.5614 2810000[\citen].
72120 2013-03-16 11:00:36 /0910/0910.5625 390000[\includegraphics, \contribID, \desyproc, {wraptable}, \text, \acronym]; 1 missing file[desyproc_rrnumber.cls].
72121 2013-03-16 11:00:27 /0910/0910.5627 040000[{theacknowledgments}, \layoutstyle, \tablehead, \classification].
72122 2013-03-16 11:00:12 /0910/0910.5617 940000[\ShortTitle, \email, \FullConference, \speaker]; 1 missing file[PoS.cls].
72123 2013-03-16 10:59:50 /0910/0910.5621 2160000[\inst, \accepted, \Month, \publonline, \email, \titlerunning, \fnmsep, \authorrunning, \received, \Issue, \Yearsubmission, \institute, \Yearpublication, \Volume, \Pagespan, \acknowledgements].
72124 2013-03-16 10:59:44 /0910/0910.5574 42200000[Align, \xyoption, \colonequals, \xymatrix, \ar]; 2 missing files[xy.sty, colonequals.sty].
72125 2013-03-16 10:59:44 /0910/0910.5611 5820000[\slashed, \cortext].
72126 2013-03-16 10:59:23 /0910/0910.5609 010000[\nofiles].
72127 2013-03-16 10:59:11 /0910/0910.5600 220000[\PACS]; 1 missing file[size11.clo.sty].
72128 2013-03-16 10:59:07 /0910/0910.5535 90180000[\Procedure, \EndProcedure, {algorithm}, \EndWhile, \Else, \While, {algorithmic}, \If, \State, \EndIf].
72129 2013-03-16 10:58:58 /0910/0910.5586 1050000[\includegraphics, \ShortTitle, \email, \FullConference, \speaker]; 1 missing file[PoS.cls].
72130 2013-03-16 10:58:57 /0910/0910.5583 9450000[\includegraphics, \ShortTitle, \email, \FullConference, \speaker]; 1 missing file[PoS.cls].
72131 2013-03-16 10:58:55 /0910/0910.5602 2190000[\includegraphics, \ea, \bpl]; 1 missing file[bpl.sty].
72132 2013-03-16 10:58:54 /0910/0910.5577 2210000[\theappendix].
72133 2013-03-16 10:58:44 /0910/0910.5568 310000[{sideways}].
72134 2013-03-16 10:58:39 /0910/0910.5571 240000[\tnoteref, \tnotetext, \cortext, \linenumbers].
72135 2013-03-16 10:58:31 /0910/0910.5573 10310000[\includegraphics, \ShortTitle, \email, \FullConference, \speaker]; 1 missing file[PoS.cls].
72136 2013-03-16 10:58:27 /0910/0910.5576 5150000[\includegraphics, \ShortTitle, \email, \FullConference, \speaker]; 1 missing file[PoS.cls].
72137 2013-03-16 10:58:27 /0910/0910.5578 140000[\ShortTitle, \email, \FullConference, \speaker]; 1 missing file[PoS.cls].
72138 2013-03-16 10:58:24 /0910/0910.5566 840000[Align, \xymatrix, \ar]; 1 missing file[xy.sty].
72139 2013-03-16 10:58:21 /0910/0910.5551 14140000[Align, \rBiject, \newarrow, \rTo, {diagram}]; 2 missing files[afterpage.sty, xy.sty].
72140 2013-03-16 10:58:16 /0910/0910.5581 13370000[\includegraphics, \ShortTitle, \email, \FullConference, \speaker]; 1 missing file[PoS.cls].
72141 2013-03-16 10:58:07 /0910/0910.5560 140000[\extrasenglish, \dateenglish, \captionsenglish]; 1 missing file[microtype.sty].
72142 2013-03-16 10:57:54 /0910/0910.5526 43440000[{numcases}]; 1 missing file[mathtext.sty].
72143 2013-03-16 10:57:53 /0910/0910.5555 130000[\toprule, \bottomrule]; 1 missing file[type1cm.sty].
72144 2013-03-16 10:57:29 /0910/0910.5460 351150000[\mathds, \kwd, \snm, {keyword}, \thankstext, \fnms, \runtitle, {aug}, \address, \thanksref, \runauthor, \printead, {frontmatter}, \ead]; 2 missing files[stackrel.sty, imsart.cls].
72145 2013-03-16 10:57:27 /0910/0910.5567 2230000[\affil, \acknowledgements]; 1 missing file[asp2006.sty].
72146 2013-03-16 10:57:15 /0910/0910.5541 720000[\title, \author].
72147 2013-03-16 10:57:10 /0910/0910.5552 330000[\binom, \email, \affiliation]; 1 missing file[qm2008_abs.cls].
72148 2013-03-16 10:57:00 /0910/0910.5556 110000[\onlfig].
72149 2013-03-16 10:56:58 /0910/0910.5537 3520000[{keywords}, \appendices]; 1 missing file[IEEEtran.cls].
72150 2013-03-16 10:56:12 /0910/0910.5545 2520000[\PACS]; 1 missing file[size11.clo.sty].
72151 2013-03-16 10:56:03 /0910/0910.5534 1230000[Align, \xymatrix, \ar].
72152 2013-03-16 10:56:00 /0910/0910.5530 173230000[\includegraphics, \multirow, \cmsAuthorMark, \cmsNoteHeader, \cmsinstskip, \hypersetup, \RCS]; 1 missing file[cms-tdr.cls].
72153 2013-03-16 10:55:34 /0910/0910.5531 13160000[\includegraphics, \ShortTitle, \email, \FullConference]; 1 missing file[PoS.cls].
72154 2013-03-16 10:55:31 /0910/0910.5532 3100000[\includegraphics, \ShortTitle, \FullConference, \speaker]; 1 missing file[PoS.cls].
72155 2013-03-16 10:55:13 /0910/0910.5502 6670000[\authorblockN, {comment}, \authorblockA, {proof}]; 1 missing file[IEEEtran.cls].
72156 2013-03-16 10:55:08 /0910/0910.5525 760000[Align, \xymatrix, \rrbracket, \ar, \llbracket]; 1 missing file[xy.sty].
72157 2013-03-16 10:54:59 /0910/0910.5494 1640000[Align, \xymatrix, \ar]; 1 missing file[xy.sty].
72158 2013-03-16 10:54:54 /0910/0910.5522 1320000[\xrightleftharpoons]; 1 missing file[chemarr.sty].
72159 2013-03-16 10:54:22 /0910/0910.5490 5350000[\extrasenglish, \markleft, \geometry, \dateenglish, \captionsenglish].
72160 2013-03-16 10:54:21 /0910/0910.5477 96100000[Align, \excludeversion, \xymatrix, \ar]; 4 missing files[pst-all.sty, fig27.tpc, version.sty, xy.sty].
72161 2013-03-16 10:53:55 /0910/0910.5510 010000[\color].
72162 2013-03-16 10:53:46 /0910/0910.5513 160000[\epsfig, \psfig, \bodymatter, \refcite, \keywords]; 1 missing file[ws.sty].
72163 2013-03-16 10:53:30 /0910/0910.5468 82350000[\fileplot, \psplot, \psaxes, \subref]; 1 missing file[pstricks-add.sty].
72164 2013-03-16 10:53:18 /0910/0910.5489 040000[\\, \title, \and, \author].
72165 2013-03-16 10:52:53 /0910/0910.5479 64890000[\yng, \excludeversion]; 1 missing file[version.sty].
72166 2013-03-16 10:52:37 /0910/0910.5451 3510000[\geometry].
72167 2013-03-16 10:52:29 /0910/0910.5442 180720000[Align, \xymatrix, \ar]; 1 missing file[xy.sty].
72168 2013-03-16 10:52:17 /0910/0910.5465 2450000[Align, \xymatrix, \ar]; 1 missing file[xy.sty].
72169 2013-03-16 10:52:16 /0910/0910.5453 7520000[\medmath]; 1 missing file[nccmath.sty].
72170 2013-03-16 10:52:02 /0910/0910.5450 4440000[Align, \xymatrix, \ar]; 1 missing file[xy.sty].
72171 2013-03-16 10:51:47 /0910/0910.5467 340000[\ShortTitle, \email, \FullConference, \speaker]; 1 missing file[PoS.cls].
72172 2013-03-16 10:51:35 /0910/0910.5444 560000[\underlineEG, \ca, \lasno, \rmCAT].
72173 2013-03-16 10:51:25 /0910/0910.5470 030000[\extrasenglish, \dateenglish, \captionsenglish].
72174 2013-03-16 10:51:19 /0910/0910.5422 4030000[\xyoption, {comment}]; 1 missing file[xy.sty].
72175 2013-03-16 10:51:19 /0910/0910.5469 470000[\editors, \affiliation, \jname, \pagerange, \keywords, \volume, \pubyear]; 1 missing file[iauJDSS.cls].
72176 2013-03-16 10:51:04 /0910/0910.5429 4380000[\Arc, \Black, \Line, \Vertex, \Text, \SetWidth, \SetColor]; 1 missing file[axodraw4j.sty].
72177 2013-03-16 10:50:24 /0910/0910.5433 19100000[\@footnotetext]; 9 missing files[xycurve.sty, xymatrix.sty, xyline.sty, xyarrow.sty, xycmtip.sty, xycolor.sty, xyrotate.sty, xyframe.sty, xygraph.sty].
72178 2013-03-16 10:50:10 /0910/0910.5435 010000[\biboptions].
72179 2013-03-16 10:49:54 /0910/0910.5430 040000[\protected@edef]; 1 missing file[xy.sty].
72180 2013-03-16 10:49:50 /0910/0910.5412 1120000[\xyoption]; 1 missing file[xy.sty].
72181 2013-03-16 10:49:48 /0910/0910.5434 040000[{theacknowledgments}, \layoutstyle, \classification]; 1 missing file[{aipcheck}].
72182 2013-03-16 10:49:38 /0910/0910.5399 143520000[\sem, \implies, \using, \address, \email, \subjclass, \justifies, {thm}, \lltensor, {lem}, \llto, {cor}, {prooftree}, \sqpreord, \qed, \keywords, \bbb, {definition}, \proof, \ie]; 4 missing files[Guy.sty, lmcs.cls, neweqnarray.sty, bbb.sty].
72183 2013-03-16 10:49:35 /0910/0910.5426 19160000[{SCfigure}, \psfrag]; 3 missing files[pstricks-add.sty, sidecap.sty, colordvi.sty].
72184 2013-03-16 10:49:14 /0910/0910.5419 0120000[\chunk, \AddToShipoutPicture, {bundle}]; 3 missing files[ecltree.sty, eso-pic.sty, colacl.sty].
72185 2013-03-16 10:48:49 /0910/0910.5407 1120000[\PACS]; 1 missing file[size11.clo.sty].
72186 2013-03-16 10:48:39 /0910/0910.5368 19240000[\overlaystyle, \overlay, \roverlay]; 1 missing file[overlay.sty].
72187 2013-03-16 10:48:35 /0910/0910.5410 060000[\AddToShipoutPicture, \balance]; 3 missing files[balance.sty, acl04.sty, eso-pic.sty].
72188 2013-03-16 10:48:28 /0910/0910.5316 62680000[\diint, \dint].
72189 2013-03-16 10:48:19 /0910/0910.5395 760000[\includegraphics, \ShortTitle, \email, \FullConference, \acknowledgments, \speaker]; 1 missing file[PoS.cls].
72190 2013-03-16 10:48:14 /0910/0910.5383 410000[{comment}].
72191 2013-03-16 10:48:06 /0910/0910.5400 410000[\thetheorem].
72192 2013-03-16 10:47:56 /0910/0910.5384 2350000[Align, \xymatrix, \entrymodifiers, \ar]; 1 missing file[xy.sty].
72193 2013-03-16 10:47:47 /0910/0910.5385 360000[\ShortTitle, \email, \FullConference, \psfrag, \acknowledgments, \speaker]; 1 missing file[PoS.cls].
72194 2013-03-16 10:47:34 /0910/0910.5392 010000[\psfrag].
72195 2013-03-16 10:47:11 /0910/0910.5375 22110000[\pacs, \inst, {rotate}, \shortauthor, \institute, \acknowledgments, \shorttitle, \Name, \etal, \REVIEW]; 1 missing file[epl2.cls].
72196 2013-03-16 10:46:38 /0910/0910.5362 210000[\al@[].
72197 2013-03-16 10:46:15 /0910/0910.5364 810000[\mathds].
72198 2013-03-16 10:45:57 /0910/0910.5247 7340000[Align, \xymatrix, \ar]; 1 missing file[xy.sty].
72199 2013-03-16 10:45:57 /0910/0910.5367 150000[\node, \arrow, \dgARROWLENGTH, {diagram}]; 1 missing file[xy.sty].
72200 2013-03-16 10:45:47 /0910/0910.5327 4940000[Align, \xymatrix, \ar]; 1 missing file[xy.sty].
<<< >>>

[0] [200] [400] [600] [800] [1000] [1200] [1400] [1600] [1800] [2000] [2200] [2400] [2600] [2800] [3000] [3200] [3400] [3600] [3800] [4000] [4200] [4400] [4600] [4800] [5000] [5200] [5400] [5600] [5800] [6000] [6200] [6400] [6600] [6800] [7000] [7200] [7400] [7600] [7800] [8000] [8200] [8400] [8600] [8800] [9000] [9200] [9400] [9600] [9800] [10000] [10200] [10400] [10600] [10800] [11000] [11200] [11400] [11600] [11800] [12000] [12200] [12400] [12600] [12800] [13000] [13200] [13400] [13600] [13800] [14000] [14200] [14400] [14600] [14800] [15000] [15200] [15400] [15600] [15800] [16000] [16200] [16400] [16600] [16800] [17000] [17200] [17400] [17600] [17800] [18000] [18200] [18400] [18600] [18800] [19000] [19200] [19400] [19600] [19800] [20000] [20200] [20400] [20600] [20800] [21000] [21200] [21400] [21600] [21800] [22000] [22200] [22400] [22600] [22800] [23000] [23200] [23400] [23600] [23800] [24000] [24200] [24400] [24600] [24800] [25000] [25200] [25400] [25600] [25800] [26000] [26200] [26400] [26600] [26800] [27000] [27200] [27400] [27600] [27800] [28000] [28200] [28400] [28600] [28800] [29000] [29200] [29400] [29600] [29800] [30000] [30200] [30400] [30600] [30800] [31000] [31200] [31400] [31600] [31800] [32000] [32200] [32400] [32600] [32800] [33000] [33200] [33400] [33600] [33800] [34000] [34200] [34400] [34600] [34800] [35000] [35200] [35400] [35600] [35800] [36000] [36200] [36400] [36600] [36800] [37000] [37200] [37400] [37600] [37800] [38000] [38200] [38400] [38600] [38800] [39000] [39200] [39400] [39600] [39800] [40000] [40200] [40400] [40600] [40800] [41000] [41200] [41400] [41600] [41800] [42000] [42200] [42400] [42600] [42800] [43000] [43200] [43400] [43600] [43800] [44000] [44200] [44400] [44600] [44800] [45000] [45200] [45400] [45600] [45800] [46000] [46200] [46400] [46600] [46800] [47000] [47200] [47400] [47600] [47800] [48000] [48200] [48400] [48600] [48800] [49000] [49200] [49400] [49600] [49800] [50000] [50200] [50400] [50600] [50800] [51000] [51200] [51400] [51600] [51800] [52000] [52200] [52400] [52600] [52800] [53000] [53200] [53400] [53600] [53800] [54000] [54200] [54400] [54600] [54800] [55000] [55200] [55400] [55600] [55800] [56000] [56200] [56400] [56600] [56800] [57000] [57200] [57400] [57600] [57800] [58000] [58200] [58400] [58600] [58800] [59000] [59200] [59400] [59600] [59800] [60000] [60200] [60400] [60600] [60800] [61000] [61200] [61400] [61600] [61800] [62000] [62200] [62400] [62600] [62800] [63000] [63200] [63400] [63600] [63800] [64000] [64200] [64400] [64600] [64800] [65000] [65200] [65400] [65600] [65800] [66000] [66200] [66400] [66600] [66800] [67000] [67200] [67400] [67600] [67800] [68000] [68200] [68400] [68600] [68800] [69000] [69200] [69400] [69600] [69800] [70000] [70200] [70400] [70600] [70800] [71000] [71200] [71400] [71600] [71800] [72000] [72200] [72400] [72600] [72800] [73000] [73200] [73400] [73600] [73800] [74000] [74200] [74400] [74600] [74800] [75000] [75200] [75400] [75600] [75800] [76000] [76200] [76400] [76600] [76800] [77000] [77200] [77400] [77600] [77800] [78000] [78200] [78400] [78600] [78800] [79000] [79200] [79400] [79600] [79800] [80000] [80200] [80400] [80600] [80800] [81000] [81200] [81400] [81600] [81800] [82000] [82200] [82400] [82600] [82800] [83000] [83200] [83400] [83600] [83800] [84000] [84200] [84400] [84600] [84800] [85000] [85200] [85400] [85600] [85800] [86000] [86200] [86400] [86600] [86800] [87000] [87200] [87400] [87600] [87800] [88000] [88200] [88400] [88600] [88800] [89000] [89200] [89400] [89600] [89800] [90000] [90200] [90400] [90600] [90800] [91000] [91200] [91400] [91600] [91800] [92000] [92200] [92400] [92600] [92800] [93000] [93200] [93400] [93600] [93800] [94000] [94200] [94400] [94600] [94800] [95000] [95200] [95400] [95600] [95800] [96000] [96200] [96400] [96600] [96800] [97000] [97200] [97400] [97600] [97800] [98000] [98200] [98400] [98600] [98800] [99000] [99200] [99400] [99600] [99800] [100000] [100200] [100400] [100600] [100800] [101000] [101200] [101400] [101600] [101800] [102000] [102200] [102400] [102600] [102800] [103000] [103200] [103400] [103600] [103800] [104000] [104200] [104400] [104600] [104800] [105000] [105200] [105400] [105600] [105800] [106000] [106200] [106400] [106600] [106800] [107000] [107200] [107400] [107600] [107800] [108000] [108200] [108400] [108600] [108800] [109000] [109200] [109400] [109600] [109800] [110000] [110200] [110400] [110600] [110800] [111000] [111200] [111400] [111600] [111800] [112000] [112200] [112400] [112600] [112800] [113000] [113200] [113400] [113600] [113800] [114000] [114200] [114400] [114600] [114800] [115000] [115200] [115400] [115600] [115800] [116000] [116200] [116400] [116600] [116800] [117000] [117200] [117400] [117600] [117800] [118000] [118200] [118400] [118600] [118800] [119000] [119200] [119400] [119600] [119800] [120000] [120200] [120400] [120600] [120800] [121000] [121200] [121400] [121600] [121800] [122000] [122200] [122400] [122600] [122800] [123000] [123200] [123400] [123600] [123800] [124000] [124200] [124400] [124600] [124800] [125000] [125200] [125400] [125600] [125800] [126000] [126200] [126400] [126600] [126800] [127000] [127200] [127400] [127600] [127800] [128000] [128200] [128400] [128600] [128800] [129000] [129200] [129400] [129600] [129800] [130000] [130200] [130400] [130600] [130800] [131000] [131200] [131400] [131600] [131800] [132000] [132200] [132400] [132600] [132800] [133000] [133200] [133400] [133600] [133800] [134000] [134200] [134400] [134600] [134800] [135000] [135200] [135400] [135600] [135800] [136000] [136200] [136400] [136600] [136800] [137000] [137200] [137400] [137600] [137800] [138000] [138200] [138400] [138600] [138800] [139000] [139200] [139400] [139600] [139800] [140000] [140200] [140400] [140600] [140800] [141000] [141200] [141400] [141600] [141800] [142000] [142200] [142400] [142600] [142800] [143000] [143200] [143400] [143600] [143800] [144000] [144200] [144400] [144600] [144800] [145000] [145200] [145400] [145600] [145800] [146000] [146200] [146400] [146600] [146800] [147000] [147200] [147400] [147600] [147800] [148000] [148200] [148400] [148600] [148800] [149000] [149200] [149400] [149600] [149800] [150000] [150200] [150400] [150600] [150800] [151000] [151200] [151400] [151600] [151800] [152000] [152200] [152400] [152600] [152800] [153000] [153200] [153400] [153600] [153800] [154000] [154200] [154400] [154600] [154800] [155000] [155200] [155400] [155600] [155800] [156000] [156200] [156400] [156600] [156800] [157000] [157200] [157400] [157600] [157800] [158000] [158200] [158400] [158600] [158800] [159000] [159200] [159400] [159600] [159800] [160000] [160200] [160400] [160600] [160800] [161000] [161200] [161400] [161600] [161800] [162000] [162200] [162400] [162600] [162800] [163000] [163200] [163400] [163600] [163800] [164000] [164200] [164400] [164600]
 
  The service has been written by
Heinrich Stamerjohanns